Time,TemperatureF,DewpointF,PressureIn,WindDirection,WindDirectionDegrees,WindSpeedMPH,WindSpeedGustMPH,Humidity,HourlyPrecipIn,Conditions,Clouds,dailyrainin,SoftwareType,DateUTC
2013-03-04 00:03:00,43.8,34.7,29.55,SE,146,2.0,-999.0,70,0.00,,,0.00,WeatherSnoop3.0,2013-03-04 06:03:00,
2013-03-04 00:08:00,43.7,34.6,29.55,ESE,112,0.0,-999.0,70,0.00,,,0.00,WeatherSnoop3.0,2013-03-04 06:08:00,
2013-03-04 00:13:00,43.5,34.7,29.55,SE,129,0.0,-999.0,71,0.00,,,0.00,WeatherSnoop3.0,2013-03-04 06:13:00,
2013-03-04 00:18:00,43.4,34.6,29.55,ESE,115,1.0,-999.0,71,0.00,,,0.00,WeatherSnoop3.0,2013-03-04 06:18:00,
2013-03-04 00:23:00,43.3,34.5,29.55,SE,141,2.0,-999.0,71,0.00,,,0.00,WeatherSnoop3.0,2013-03-04 06:23:00,
2013-03-04 00:28:00,43.0,34.3,29.54,SE,139,2.0,-999.0,71,0.00,,,0.00,WeatherSnoop3.0,2013-03-04 06:28:00,
2013-03-04 00:33:00,43.0,34.6,29.54,SE,130,3.0,-999.0,72,0.00,,,0.00,WeatherSnoop3.0,2013-03-04 06:33:00,
2013-03-04 00:38:00,43.1,34.3,29.53,SE,141,2.0,-999.0,71,0.00,,,0.00,WeatherSnoop3.0,2013-03-04 06:38:00,
2013-03-04 00:43:00,43.7,34.6,29.53,ESE,119,4.0,-999.0,70,0.00,,,0.00,WeatherSnoop3.0,2013-03-04 06:43:00,
2013-03-04 00:48:00,44.1,34.6,29.53,ESE,119,3.0,-999.0,69,0.00,,,0.00,WeatherSnoop3.0,2013-03-04 06:48:00,
2013-03-04 00:53:00,44.4,34.9,29.53,ESE,119,1.0,-999.0,69,0.00,,,0.00,WeatherSnoop3.0,2013-03-04 06:53:00,
2013-03-04 00:58:00,44.2,34.7,29.53,SE,141,5.0,-999.0,69,0.00,,,0.00,WeatherSnoop3.0,2013-03-04 06:58:00,
2013-03-04 01:03:00,44.0,34.5,29.53,ESE,120,1.0,-999.0,69,0.00,,,0.00,WeatherSnoop3.0,2013-03-04 07:03:00,
2013-03-04 01:08:00,43.9,34.8,29.53,SE,141,4.0,-999.0,70,0.00,,,0.00,WeatherSnoop3.0,2013-03-04 07:08:00,
2013-03-04 01:13:00,44.1,35.0,29.53,ENE,74,4.0,-999.0,70,0.00,,,0.00,WeatherSnoop3.0,2013-03-04 07:13:00,
2013-03-04 01:18:00,44.5,35.0,29.53,ESE,115,2.0,-999.0,69,0.00,,,0.00,WeatherSnoop3.0,2013-03-04 07:18:00,
2013-03-04 01:23:00,44.6,35.1,29.53,SE,141,1.0,-999.0,69,0.00,,,0.00,WeatherSnoop3.0,2013-03-04 07:23:00,
2013-03-04 01:28:00,44.7,34.8,29.53,East,94,2.0,-999.0,68,0.00,,,0.00,WeatherSnoop3.0,2013-03-04 07:28:00,
2013-03-04 01:33:00,44.5,35.0,29.53,East,94,3.0,-999.0,69,0.00,,,0.00,WeatherSnoop3.0,2013-03-04 07:33:00,
2013-03-04 01:38:00,44.4,34.9,29.53,East,86,3.0,-999.0,69,0.00,,,0.00,WeatherSnoop3.0,2013-03-04 07:38:00,
2013-03-04 01:43:00,44.2,34.7,29.53,ESE,103,1.0,-999.0,69,0.00,,,0.00,WeatherSnoop3.0,2013-03-04 07:43:00,
2013-03-04 01:48:00,44.1,34.6,29.53,ESE,103,2.0,-999.0,69,0.00,,,0.00,WeatherSnoop3.0,2013-03-04 07:48:00,
2013-03-04 01:53:00,44.1,34.6,29.53,ENE,77,3.0,-999.0,69,0.00,,,0.00,WeatherSnoop3.0,2013-03-04 07:53:00,
2013-03-04 01:58:00,44.3,34.8,29.53,East,81,1.0,-999.0,69,0.00,,,0.00,WeatherSnoop3.0,2013-03-04 07:58:00,
2013-03-04 02:03:00,43.9,34.8,29.53,NE,51,2.0,-999.0,70,0.00,,,0.00,WeatherSnoop3.0,2013-03-04 08:03:00,
2013-03-04 02:08:00,43.6,34.8,29.53,NE,40,0.0,-999.0,71,0.00,,,0.00,WeatherSnoop3.0,2013-03-04 08:08:00,
2013-03-04 02:13:00,43.1,34.7,29.53,NE,47,0.0,-999.0,72,0.00,,,0.00,WeatherSnoop3.0,2013-03-04 08:13:00,
2013-03-04 02:18:00,43.4,35.0,29.52,ESE,105,0.0,-999.0,72,0.00,,,0.00,WeatherSnoop3.0,2013-03-04 08:18:00,
2013-03-04 02:23:00,43.9,35.1,29.52,SE,124,0.0,-999.0,71,0.00,,,0.00,WeatherSnoop3.0,2013-03-04 08:23:00,
2013-03-04 02:28:00,43.9,34.8,29.52,ESE,121,1.0,-999.0,70,0.00,,,0.00,WeatherSnoop3.0,2013-03-04 08:28:00,
2013-03-04 02:33:00,43.9,34.8,29.52,SE,126,0.0,-999.0,70,0.00,,,0.00,WeatherSnoop3.0,2013-03-04 08:33:00,
2013-03-04 02:38:00,43.7,34.6,29.51,East,90,1.0,-999.0,70,0.00,,,0.00,WeatherSnoop3.0,2013-03-04 08:38:00,
2013-03-04 02:43:00,43.7,34.9,29.51,East,90,0.0,-999.0,71,0.00,,,0.00,WeatherSnoop3.0,2013-03-04 08:43:00,
2013-03-04 02:48:00,43.6,34.8,29.51,East,81,2.0,-999.0,71,0.00,,,0.00,WeatherSnoop3.0,2013-03-04 08:48:00,
2013-03-04 02:53:00,43.5,34.7,29.51,East,85,0.0,-999.0,71,0.00,,,0.00,WeatherSnoop3.0,2013-03-04 08:53:00,
2013-03-04 02:58:00,43.0,34.6,29.51,East,90,1.0,-999.0,72,0.00,,,0.00,WeatherSnoop3.0,2013-03-04 08:58:00,
2013-03-04 03:03:00,42.8,34.8,29.50,East,101,0.0,-999.0,73,0.00,,,0.00,WeatherSnoop3.0,2013-03-04 09:03:00,
2013-03-04 03:08:00,43.0,34.6,29.50,East,89,0.0,-999.0,72,0.00,,,0.00,WeatherSnoop3.0,2013-03-04 09:08:00,
2013-03-04 03:13:00,42.9,34.5,29.50,ENE,75,1.0,-999.0,72,0.00,,,0.00,WeatherSnoop3.0,2013-03-04 09:13:00,
2013-03-04 03:18:00,43.1,34.7,29.50,ESE,102,1.0,-999.0,72,0.00,,,0.00,WeatherSnoop3.0,2013-03-04 09:18:00,
2013-03-04 03:23:00,43.2,34.8,29.50,East,100,2.0,-999.0,72,0.00,,,0.00,WeatherSnoop3.0,2013-03-04 09:23:00,
2013-03-04 03:28:00,43.1,34.7,29.49,East,86,2.0,-999.0,72,0.00,,,0.00,WeatherSnoop3.0,2013-03-04 09:28:00,
2013-03-04 03:33:00,43.0,34.6,29.50,East,89,2.0,-999.0,72,0.00,,,0.00,WeatherSnoop3.0,2013-03-04 09:33:00,
2013-03-04 03:38:00,42.5,34.1,29.50,ENE,63,1.0,-999.0,72,0.00,,,0.00,WeatherSnoop3.0,2013-03-04 09:38:00,
2013-03-04 03:43:00,41.9,34.2,29.50,NNE,13,1.0,-999.0,74,0.00,,,0.00,WeatherSnoop3.0,2013-03-04 09:43:00,
2013-03-04 03:48:00,41.5,33.8,29.50,North,10,2.0,-999.0,74,0.00,,,0.00,WeatherSnoop3.0,2013-03-04 09:48:00,
2013-03-04 03:53:00,41.1,33.8,29.50,NNE,28,0.0,-999.0,75,0.00,,,0.00,WeatherSnoop3.0,2013-03-04 09:53:00,
2013-03-04 03:58:00,40.4,33.4,29.50,NNE,27,1.0,-999.0,76,0.00,,,0.00,WeatherSnoop3.0,2013-03-04 09:58:00,
2013-03-04 04:03:00,39.6,33.3,29.49,NE,44,0.0,-999.0,78,0.00,,,0.00,WeatherSnoop3.0,2013-03-04 10:03:00,
2013-03-04 04:08:00,39.2,33.2,29.49,NE,47,0.0,-999.0,79,0.00,,,0.00,WeatherSnoop3.0,2013-03-04 10:08:00,
2013-03-04 04:13:00,39.1,33.1,29.50,NE,47,0.0,-999.0,79,0.00,,,0.00,WeatherSnoop3.0,2013-03-04 10:13:00,
2013-03-04 04:18:00,39.0,33.1,29.50,ENE,60,0.0,-999.0,79,0.00,,,0.00,WeatherSnoop3.0,2013-03-04 10:18:00,
2013-03-04 04:23:00,38.6,33.0,29.50,ENE,58,0.0,-999.0,80,0.00,,,0.00,WeatherSnoop3.0,2013-03-04 10:23:00,
2013-03-04 04:28:00,38.2,32.9,29.50,ENE,58,0.0,-999.0,81,0.00,,,0.00,WeatherSnoop3.0,2013-03-04 10:28:00,
2013-03-04 04:33:00,37.7,32.4,29.50,ENE,58,0.0,-999.0,81,0.00,,,0.00,WeatherSnoop3.0,2013-03-04 10:33:00,
2013-03-04 04:38:00,37.4,32.4,29.50,ENE,58,0.0,-999.0,82,0.00,,,0.00,WeatherSnoop3.0,2013-03-04 10:38:00,
2013-03-04 04:43:00,37.3,32.6,29.50,NNE,26,0.0,-999.0,83,0.00,,,0.00,WeatherSnoop3.0,2013-03-04 10:43:00,
2013-03-04 04:48:00,37.5,32.5,29.50,NE,47,1.0,-999.0,82,0.00,,,0.00,WeatherSnoop3.0,2013-03-04 10:48:00,
2013-03-04 04:53:00,37.1,32.1,29.50,NE,47,0.0,-999.0,82,0.00,,,0.00,WeatherSnoop3.0,2013-03-04 10:53:00,
2013-03-04 04:58:00,36.8,32.4,29.50,NE,44,0.0,-999.0,84,0.00,,,0.00,WeatherSnoop3.0,2013-03-04 10:58:00,
2013-03-04 05:03:00,36.5,32.1,29.50,NE,43,0.0,-999.0,84,0.00,,,0.00,WeatherSnoop3.0,2013-03-04 11:03:00,
2013-03-04 05:08:00,36.7,32.3,29.50,NE,40,1.0,-999.0,84,0.00,,,0.00,WeatherSnoop3.0,2013-03-04 11:08:00,
2013-03-04 05:13:00,36.8,32.1,29.51,ESE,103,0.0,-999.0,83,0.00,,,0.00,WeatherSnoop3.0,2013-03-04 11:13:00,
2013-03-04 05:18:00,36.7,32.3,29.51,East,97,0.0,-999.0,84,0.00,,,0.00,WeatherSnoop3.0,2013-03-04 11:18:00,
2013-03-04 05:23:00,36.5,32.1,29.52,North,360,0.0,-999.0,84,0.00,,,0.00,WeatherSnoop3.0,2013-03-04 11:23:00,
2013-03-04 05:28:00,36.4,32.0,29.53,NNE,23,0.0,-999.0,84,0.00,,,0.00,WeatherSnoop3.0,2013-03-04 11:28:00,
2013-03-04 05:33:00,36.4,32.0,29.53,ENE,59,1.0,-999.0,84,0.00,,,0.00,WeatherSnoop3.0,2013-03-04 11:33:00,
2013-03-04 05:38:00,36.4,32.0,29.53,NE,51,2.0,-999.0,84,0.00,,,0.00,WeatherSnoop3.0,2013-03-04 11:38:00,
2013-03-04 05:43:00,36.6,32.2,29.53,NE,44,1.0,-999.0,84,0.00,,,0.00,WeatherSnoop3.0,2013-03-04 11:43:00,
2013-03-04 05:48:00,36.5,32.1,29.53,NNE,23,3.0,-999.0,84,0.00,,,0.00,WeatherSnoop3.0,2013-03-04 11:48:00,
2013-03-04 05:53:00,36.8,32.4,29.53,NNE,23,1.0,-999.0,84,0.00,,,0.00,WeatherSnoop3.0,2013-03-04 11:53:00,
2013-03-04 05:58:00,36.8,32.1,29.53,NNW,344,2.0,-999.0,83,0.00,,,0.00,WeatherSnoop3.0,2013-03-04 11:58:00,
2013-03-04 06:03:00,37.2,32.5,29.53,NE,34,0.0,-999.0,83,0.00,,,0.00,WeatherSnoop3.0,2013-03-04 12:03:00,
2013-03-04 06:08:00,37.2,32.2,29.53,NNE,23,4.0,-999.0,82,0.00,,,0.00,WeatherSnoop3.0,2013-03-04 12:08:00,
2013-03-04 06:13:00,37.1,32.4,29.53,NE,40,3.0,-999.0,83,0.00,,,0.00,WeatherSnoop3.0,2013-03-04 12:13:00,
2013-03-04 06:18:00,36.9,31.9,29.54,NW,318,2.0,-999.0,82,0.00,,,0.00,WeatherSnoop3.0,2013-03-04 12:18:00,
2013-03-04 06:23:00,36.6,31.9,29.54,WNW,300,1.0,-999.0,83,0.00,,,0.00,WeatherSnoop3.0,2013-03-04 12:23:00,
2013-03-04 06:28:00,36.1,31.4,29.54,North,9,4.0,-999.0,83,0.00,,,0.00,WeatherSnoop3.0,2013-03-04 12:28:00,
2013-03-04 06:33:00,35.6,31.3,29.54,NE,49,3.0,-999.0,84,0.00,,,0.00,WeatherSnoop3.0,2013-03-04 12:33:00,
2013-03-04 06:38:00,35.4,31.3,29.55,NE,34,2.0,-999.0,85,0.00,,,0.00,WeatherSnoop3.0,2013-03-04 12:38:00,
2013-03-04 06:43:00,35.2,31.2,29.55,NNW,346,1.0,-999.0,85,0.00,,,0.00,WeatherSnoop3.0,2013-03-04 12:43:00,
2013-03-04 06:48:00,35.1,31.3,29.55,NNE,32,3.0,-999.0,86,0.00,,,0.00,WeatherSnoop3.0,2013-03-04 12:48:00,
2013-03-04 06:53:00,35.1,31.1,29.55,NNE,29,2.0,-999.0,85,0.00,,,0.00,WeatherSnoop3.0,2013-03-04 12:53:00,
2013-03-04 06:58:00,34.9,31.1,29.55,NNW,338,4.0,-999.0,86,0.00,,,0.00,WeatherSnoop3.0,2013-03-04 12:58:00,
2013-03-04 07:03:00,34.9,31.1,29.55,North,357,3.0,-999.0,86,0.00,,,0.00,WeatherSnoop3.0,2013-03-04 13:03:00,
2013-03-04 07:08:00,34.8,31.0,29.55,NNW,338,1.0,-999.0,86,0.00,,,0.00,WeatherSnoop3.0,2013-03-04 13:08:00,
2013-03-04 07:13:00,34.7,30.9,29.55,NNE,16,1.0,-999.0,86,0.00,,,0.00,WeatherSnoop3.0,2013-03-04 13:13:00,
2013-03-04 07:18:00,34.7,30.9,29.56,NNE,29,8.0,-999.0,86,0.00,,,0.00,WeatherSnoop3.0,2013-03-04 13:18:00,
2013-03-04 07:23:00,34.9,31.1,29.56,NE,41,2.0,-999.0,86,0.00,,,0.00,WeatherSnoop3.0,2013-03-04 13:23:00,
2013-03-04 07:28:00,34.9,31.1,29.56,NNE,33,4.0,-999.0,86,0.00,,,0.00,WeatherSnoop3.0,2013-03-04 13:28:00,
2013-03-04 07:33:00,35.2,31.4,29.56,NNE,27,6.0,-999.0,86,0.00,,,0.00,WeatherSnoop3.0,2013-03-04 13:33:00,
2013-03-04 07:38:00,35.5,31.4,29.56,ENE,60,3.0,-999.0,85,0.00,,,0.00,WeatherSnoop3.0,2013-03-04 13:38:00,
2013-03-04 07:43:00,35.9,31.8,29.56,NW,326,3.0,-999.0,85,0.00,,,0.00,WeatherSnoop3.0,2013-03-04 13:43:00,
2013-03-04 07:48:00,36.3,31.9,29.56,NNE,15,5.0,-999.0,84,0.00,,,0.00,WeatherSnoop3.0,2013-03-04 13:48:00,
2013-03-04 07:53:00,36.6,31.9,29.56,North,8,4.0,-999.0,83,0.00,,,0.00,WeatherSnoop3.0,2013-03-04 13:53:00,
2013-03-04 07:58:00,36.7,32.0,29.56,NNE,18,6.0,-999.0,83,0.00,,,0.00,WeatherSnoop3.0,2013-03-04 13:58:00,
2013-03-04 08:03:00,37.0,32.3,29.57,NNE,23,1.0,-999.0,83,0.00,,,0.00,WeatherSnoop3.0,2013-03-04 14:03:00,
2013-03-04 08:08:00,37.1,32.1,29.57,NNE,20,4.0,-999.0,82,0.00,,,0.00,WeatherSnoop3.0,2013-03-04 14:08:00,
2013-03-04 08:13:00,37.4,32.4,29.57,NNE,16,5.0,-999.0,82,0.00,,,0.00,WeatherSnoop3.0,2013-03-04 14:13:00,
2013-03-04 08:18:00,37.6,32.6,29.57,North,353,2.0,-999.0,82,0.00,,,0.00,WeatherSnoop3.0,2013-03-04 14:18:00,
2013-03-04 08:23:00,37.9,32.9,29.57,NNE,33,3.0,-999.0,82,0.00,,,0.00,WeatherSnoop3.0,2013-03-04 14:23:00,
2013-03-04 08:28:00,38.1,32.8,29.58,North,357,4.0,-999.0,81,0.00,,,0.00,WeatherSnoop3.0,2013-03-04 14:28:00,
2013-03-04 08:33:00,38.2,32.9,29.58,NNE,13,3.0,-999.0,81,0.00,,,0.00,WeatherSnoop3.0,2013-03-04 14:33:00,
2013-03-04 08:38:00,38.5,33.2,29.58,NNW,338,1.0,-999.0,81,0.00,,,0.00,WeatherSnoop3.0,2013-03-04 14:38:00,
2013-03-04 08:43:00,38.8,33.5,29.58,NE,34,2.0,-999.0,81,0.00,,,0.00,WeatherSnoop3.0,2013-03-04 14:43:00,
2013-03-04 08:48:00,39.2,33.6,29.59,NE,39,2.0,-999.0,80,0.00,,,0.00,WeatherSnoop3.0,2013-03-04 14:48:00,
2013-03-04 08:53:00,39.5,33.5,29.59,North,6,2.0,-999.0,79,0.00,,,0.00,WeatherSnoop3.0,2013-03-04 14:53:00,
2013-03-04 08:58:00,39.7,33.7,29.59,NNE,24,4.0,-999.0,79,0.00,,,0.00,WeatherSnoop3.0,2013-03-04 14:58:00,
2013-03-04 09:03:00,39.9,33.6,29.59,NNE,29,4.0,-999.0,78,0.00,,,0.00,WeatherSnoop3.0,2013-03-04 15:03:00,
2013-03-04 09:08:00,40.0,33.7,29.59,NNE,33,3.0,-999.0,78,0.00,,,0.00,WeatherSnoop3.0,2013-03-04 15:08:00,
2013-03-04 09:13:00,40.1,33.8,29.58,NNE,30,3.0,-999.0,78,0.00,,,0.00,WeatherSnoop3.0,2013-03-04 15:13:00,
2013-03-04 09:18:00,40.5,34.2,29.59,NE,50,4.0,-999.0,78,0.00,,,0.00,WeatherSnoop3.0,2013-03-04 15:18:00,
2013-03-04 09:23:00,40.6,34.0,29.59,North,351,2.0,-999.0,77,0.00,,,0.00,WeatherSnoop3.0,2013-03-04 15:23:00,
2013-03-04 09:28:00,40.7,34.1,29.59,North,359,3.0,-999.0,77,0.00,,,0.00,WeatherSnoop3.0,2013-03-04 15:28:00,
2013-03-04 09:33:00,40.9,34.3,29.59,NNW,334,2.0,-999.0,77,0.00,,,0.00,WeatherSnoop3.0,2013-03-04 15:33:00,
2013-03-04 09:38:00,41.4,34.7,29.59,NNE,12,3.0,-999.0,77,0.00,,,0.00,WeatherSnoop3.0,2013-03-04 15:38:00,
2013-03-04 09:43:00,41.6,34.6,29.59,NNE,29,5.0,-999.0,76,0.00,,,0.00,WeatherSnoop3.0,2013-03-04 15:43:00,
2013-03-04 09:48:00,41.5,34.5,29.59,NE,43,3.0,-999.0,76,0.00,,,0.00,WeatherSnoop3.0,2013-03-04 15:48:00,
2013-03-04 09:53:00,42.0,35.0,29.60,NW,326,2.0,-999.0,76,0.00,,,0.00,WeatherSnoop3.0,2013-03-04 15:53:00,
2013-03-04 09:58:00,42.5,35.5,29.60,NE,35,3.0,-999.0,76,0.00,,,0.00,WeatherSnoop3.0,2013-03-04 15:58:00,
2013-03-04 10:03:00,42.7,35.0,29.60,NNE,22,5.0,-999.0,74,0.00,,,0.00,WeatherSnoop3.0,2013-03-04 16:03:00,
2013-03-04 10:08:00,42.9,35.2,29.60,NNE,30,3.0,-999.0,74,0.00,,,0.00,WeatherSnoop3.0,2013-03-04 16:08:00,
2013-03-04 10:13:00,43.3,35.6,29.60,NE,39,1.0,-999.0,74,0.00,,,0.00,WeatherSnoop3.0,2013-03-04 16:13:00,
2013-03-04 10:18:00,43.6,35.9,29.60,ENE,77,4.0,-999.0,74,0.00,,,0.00,WeatherSnoop3.0,2013-03-04 16:18:00,
2013-03-04 10:23:00,43.5,36.1,29.60,North,349,3.0,-999.0,75,0.00,,,0.00,WeatherSnoop3.0,2013-03-04 16:23:00,
2013-03-04 10:28:00,44.0,36.3,29.60,NE,54,5.0,-999.0,74,0.00,,,0.00,WeatherSnoop3.0,2013-03-04 16:28:00,
2013-03-04 10:33:00,44.2,36.1,29.61,NE,39,2.0,-999.0,73,0.00,,,0.00,WeatherSnoop3.0,2013-03-04 16:33:00,
2013-03-04 10:38:00,44.4,35.9,29.60,NNE,32,6.0,-999.0,72,0.00,,,0.00,WeatherSnoop3.0,2013-03-04 16:38:00,
2013-03-04 10:43:00,44.4,36.3,29.61,NNW,331,6.0,-999.0,73,0.00,,,0.00,WeatherSnoop3.0,2013-03-04 16:43:00,
2013-03-04 10:48:00,44.2,35.8,29.61,NNW,342,7.0,-999.0,72,0.00,,,0.00,WeatherSnoop3.0,2013-03-04 16:48:00,
2013-03-04 10:53:00,44.1,36.0,29.61,North,1,9.0,-999.0,73,0.00,,,0.00,WeatherSnoop3.0,2013-03-04 16:53:00,
2013-03-04 10:58:00,43.9,36.2,29.61,NNW,338,6.0,-999.0,74,0.00,,,0.00,WeatherSnoop3.0,2013-03-04 16:58:00,
2013-03-04 11:03:00,43.3,35.6,29.62,NNE,13,9.0,-999.0,74,0.00,,,0.00,WeatherSnoop3.0,2013-03-04 17:03:00,
2013-03-04 11:08:00,43.2,36.2,29.62,NE,40,4.0,-999.0,76,0.00,,,0.00,WeatherSnoop3.0,2013-03-04 17:08:00,
2013-03-04 11:13:00,42.9,35.9,29.62,ENE,71,15.0,-999.0,76,0.00,,,0.00,WeatherSnoop3.0,2013-03-04 17:13:00,
2013-03-04 11:18:00,42.5,35.8,29.63,NW,311,7.0,-999.0,77,0.00,,,0.00,WeatherSnoop3.0,2013-03-04 17:18:00,
2013-03-04 11:23:00,42.3,35.6,29.62,NNE,13,14.0,-999.0,77,0.00,,,0.00,WeatherSnoop3.0,2013-03-04 17:23:00,
2013-03-04 11:28:00,42.0,35.6,29.63,NNE,32,13.0,-999.0,78,0.00,,,0.00,WeatherSnoop3.0,2013-03-04 17:28:00,
2013-03-04 11:33:00,42.1,36.1,29.63,NNE,26,6.0,-999.0,79,0.00,,,0.00,WeatherSnoop3.0,2013-03-04 17:33:00,
2013-03-04 11:38:00,42.3,36.3,29.63,North,4,5.0,-999.0,79,0.00,,,0.00,WeatherSnoop3.0,2013-03-04 17:38:00,
2013-03-04 11:43:00,42.5,36.5,29.64,North,5,4.0,-999.0,79,0.00,,,0.00,WeatherSnoop3.0,2013-03-04 17:43:00,
2013-03-04 11:48:00,42.5,36.8,29.64,NE,50,5.0,-999.0,80,0.00,,,0.00,WeatherSnoop3.0,2013-03-04 17:48:00,
2013-03-04 11:53:00,42.5,36.8,29.63,NNE,26,7.0,-999.0,80,0.00,,,0.00,WeatherSnoop3.0,2013-03-04 17:53:00,
2013-03-04 11:58:00,42.7,37.0,29.64,North,356,5.0,-999.0,80,0.00,,,0.00,WeatherSnoop3.0,2013-03-04 17:58:00,
2013-03-04 12:03:00,42.7,37.0,29.64,NNE,24,11.0,-999.0,80,0.00,,,0.00,WeatherSnoop3.0,2013-03-04 18:03:00,
2013-03-04 12:08:00,42.7,37.3,29.64,SSE,149,4.0,-999.0,81,0.00,,,0.00,WeatherSnoop3.0,2013-03-04 18:08:00,
2013-03-04 12:13:00,42.6,36.9,29.64,NE,56,5.0,-999.0,80,0.00,,,0.00,WeatherSnoop3.0,2013-03-04 18:13:00,
2013-03-04 12:18:00,42.3,36.9,29.64,NNE,13,10.0,-999.0,81,0.00,,,0.00,WeatherSnoop3.0,2013-03-04 18:18:00,
2013-03-04 12:23:00,41.9,36.8,29.64,NNE,26,7.0,-999.0,82,0.00,,,0.00,WeatherSnoop3.0,2013-03-04 18:23:00,
2013-03-04 12:28:00,41.7,36.6,29.64,NNW,342,9.0,-999.0,82,0.00,,,0.00,WeatherSnoop3.0,2013-03-04 18:28:00,
2013-03-04 12:33:00,41.5,36.4,29.64,NNW,335,4.0,-999.0,82,0.00,,,0.00,WeatherSnoop3.0,2013-03-04 18:33:00,
2013-03-04 12:38:00,41.8,37.0,29.64,North,8,4.0,-999.0,83,0.00,,,0.00,WeatherSnoop3.0,2013-03-04 18:38:00,
2013-03-04 12:43:00,41.9,36.8,29.64,NE,46,6.0,-999.0,82,0.00,,,0.00,WeatherSnoop3.0,2013-03-04 18:43:00,
2013-03-04 12:48:00,41.8,37.0,29.64,NNW,347,4.0,-999.0,83,0.00,,,0.00,WeatherSnoop3.0,2013-03-04 18:48:00,
2013-03-04 12:53:00,42.0,37.2,29.63,NNE,13,10.0,-999.0,83,0.00,,,0.00,WeatherSnoop3.0,2013-03-04 18:53:00,
2013-03-04 12:58:00,42.2,37.4,29.63,North,354,3.0,-999.0,83,0.00,,,0.00,WeatherSnoop3.0,2013-03-04 18:58:00,
2013-03-04 13:03:00,42.2,37.4,29.63,NE,34,6.0,-999.0,83,0.00,,,0.00,WeatherSnoop3.0,2013-03-04 19:03:00,
2013-03-04 13:08:00,41.9,37.1,29.63,NNE,27,18.0,-999.0,83,0.00,,,0.00,WeatherSnoop3.0,2013-03-04 19:08:00,
2013-03-04 13:13:00,41.9,37.1,29.63,NE,46,10.0,-999.0,83,0.00,,,0.00,WeatherSnoop3.0,2013-03-04 19:13:00,
2013-03-04 13:18:00,42.0,37.2,29.63,NW,325,5.0,-999.0,83,0.00,,,0.00,WeatherSnoop3.0,2013-03-04 19:18:00,
2013-03-04 13:23:00,42.0,37.2,29.63,North,5,7.0,-999.0,83,0.00,,,0.00,WeatherSnoop3.0,2013-03-04 19:23:00,
2013-03-04 13:28:00,41.9,37.1,29.63,NNW,331,10.0,-999.0,83,0.00,,,0.00,WeatherSnoop3.0,2013-03-04 19:28:00,
2013-03-04 13:33:00,41.9,37.1,29.62,North,9,9.0,-999.0,83,0.00,,,0.00,WeatherSnoop3.0,2013-03-04 19:33:00,
2013-03-04 13:38:00,42.0,36.9,29.62,North,4,13.0,-999.0,82,0.00,,,0.00,WeatherSnoop3.0,2013-03-04 19:38:00,
2013-03-04 13:43:00,42.0,37.2,29.63,NE,46,9.0,-999.0,83,0.00,,,0.00,WeatherSnoop3.0,2013-03-04 19:43:00,
2013-03-04 13:48:00,42.1,37.0,29.63,NE,46,14.0,-999.0,82,0.00,,,0.00,WeatherSnoop3.0,2013-03-04 19:48:00,
2013-03-04 13:53:00,42.2,37.4,29.63,NNE,18,4.0,-999.0,83,0.00,,,0.00,WeatherSnoop3.0,2013-03-04 19:53:00,
2013-03-04 13:58:00,42.5,37.7,29.63,NNW,332,7.0,-999.0,83,0.00,,,0.00,WeatherSnoop3.0,2013-03-04 19:58:00,
2013-03-04 14:03:00,42.4,37.3,29.63,NNE,15,14.0,-999.0,82,0.00,,,0.00,WeatherSnoop3.0,2013-03-04 20:03:00,
2013-03-04 14:08:00,42.4,37.6,29.63,North,10,7.0,-999.0,83,0.00,,,0.00,WeatherSnoop3.0,2013-03-04 20:08:00,
2013-03-04 14:13:00,42.4,37.0,29.63,NE,44,5.0,-999.0,81,0.00,,,0.00,WeatherSnoop3.0,2013-03-04 20:13:00,
2013-03-04 14:18:00,42.4,37.3,29.64,NNW,342,3.0,-999.0,82,0.00,,,0.00,WeatherSnoop3.0,2013-03-04 20:18:00,
2013-03-04 14:23:00,42.6,37.5,29.63,NE,40,10.0,-999.0,82,0.00,,,0.00,WeatherSnoop3.0,2013-03-04 20:23:00,
2013-03-04 14:28:00,42.4,37.0,29.63,ENE,58,6.0,-999.0,81,0.00,,,0.00,WeatherSnoop3.0,2013-03-04 20:28:00,
2013-03-04 14:33:00,42.5,37.1,29.63,NE,40,7.0,-999.0,81,0.00,,,0.00,WeatherSnoop3.0,2013-03-04 20:33:00,
2013-03-04 14:38:00,42.5,37.1,29.64,NNE,15,3.0,-999.0,81,0.00,,,0.00,WeatherSnoop3.0,2013-03-04 20:38:00,
2013-03-04 14:43:00,42.7,37.6,29.64,NNE,14,3.0,-999.0,82,0.00,,,0.00,WeatherSnoop3.0,2013-03-04 20:43:00,
2013-03-04 14:48:00,42.6,37.2,29.64,NE,36,3.0,-999.0,81,0.00,,,0.00,WeatherSnoop3.0,2013-03-04 20:48:00,
2013-03-04 14:53:00,42.5,37.1,29.65,NNE,28,8.0,-999.0,81,0.00,,,0.00,WeatherSnoop3.0,2013-03-04 20:53:00,
2013-03-04 14:58:00,42.6,37.2,29.65,North,9,6.0,-999.0,81,0.00,,,0.00,WeatherSnoop3.0,2013-03-04 20:58:00,
2013-03-04 15:03:00,42.4,37.0,29.66,North,351,5.0,-999.0,81,0.00,,,0.00,WeatherSnoop3.0,2013-03-04 21:03:00,
2013-03-04 15:08:00,42.5,37.4,29.66,NE,47,2.0,-999.0,82,0.00,,,0.00,WeatherSnoop3.0,2013-03-04 21:08:00,
2013-03-04 15:13:00,42.6,37.5,29.66,NNE,21,6.0,-999.0,82,0.00,,,0.00,WeatherSnoop3.0,2013-03-04 21:13:00,
2013-03-04 15:18:00,43.0,37.6,29.66,ENE,75,3.0,-999.0,81,0.00,,,0.00,WeatherSnoop3.0,2013-03-04 21:18:00,
2013-03-04 15:23:00,43.0,37.6,29.66,NNW,329,3.0,-999.0,81,0.00,,,0.00,WeatherSnoop3.0,2013-03-04 21:23:00,
2013-03-04 15:28:00,43.2,38.1,29.66,NNE,15,4.0,-999.0,82,0.00,,,0.00,WeatherSnoop3.0,2013-03-04 21:28:00,
2013-03-04 15:33:00,43.1,37.7,29.66,NNE,24,6.0,-999.0,81,0.00,,,0.00,WeatherSnoop3.0,2013-03-04 21:33:00,
2013-03-04 15:38:00,43.3,38.2,29.66,NNW,347,3.0,-999.0,82,0.00,,,0.00,WeatherSnoop3.0,2013-03-04 21:38:00,
2013-03-04 15:43:00,43.5,38.1,29.66,NNE,32,6.0,-999.0,81,0.00,,,0.00,WeatherSnoop3.0,2013-03-04 21:43:00,
2013-03-04 15:48:00,43.4,38.0,29.67,NW,307,6.0,-999.0,81,0.00,,,0.00,WeatherSnoop3.0,2013-03-04 21:48:00,
2013-03-04 15:53:00,43.4,38.0,29.67,NE,34,2.0,-999.0,81,0.00,,,0.00,WeatherSnoop3.0,2013-03-04 21:53:00,
2013-03-04 15:58:00,43.2,37.8,29.67,North,354,3.0,-999.0,81,0.00,,,0.00,WeatherSnoop3.0,2013-03-04 21:58:00,
2013-03-04 16:03:00,43.1,37.7,29.67,NNE,13,2.0,-999.0,81,0.00,,,0.00,WeatherSnoop3.0,2013-03-04 22:03:00,
2013-03-04 16:08:00,43.0,37.9,29.68,NW,322,2.0,-999.0,82,0.00,,,0.00,WeatherSnoop3.0,2013-03-04 22:08:00,
2013-03-04 16:13:00,42.9,37.8,29.68,NNE,30,6.0,-999.0,82,0.00,,,0.00,WeatherSnoop3.0,2013-03-04 22:13:00,
2013-03-04 16:18:00,42.9,37.8,29.68,NE,51,2.0,-999.0,82,0.00,,,0.00,WeatherSnoop3.0,2013-03-04 22:18:00,
2013-03-04 16:23:00,42.9,37.8,29.69,ENE,78,2.0,-999.0,82,0.00,,,0.00,WeatherSnoop3.0,2013-03-04 22:23:00,
2013-03-04 16:28:00,43.0,37.9,29.69,NNW,345,3.0,-999.0,82,0.00,,,0.00,WeatherSnoop3.0,2013-03-04 22:28:00,
2013-03-04 16:33:00,42.9,37.8,29.69,NNW,344,2.0,-999.0,82,0.00,,,0.00,WeatherSnoop3.0,2013-03-04 22:33:00,
2013-03-04 16:38:00,42.8,37.7,29.70,NNE,32,3.0,-999.0,82,0.00,,,0.00,WeatherSnoop3.0,2013-03-04 22:38:00,
2013-03-04 16:43:00,42.7,37.9,29.70,North,360,2.0,-999.0,83,0.00,,,0.00,WeatherSnoop3.0,2013-03-04 22:43:00,
2013-03-04 16:48:00,42.5,37.7,29.71,NE,51,0.0,-999.0,83,0.00,,,0.00,WeatherSnoop3.0,2013-03-04 22:48:00,
2013-03-04 16:53:00,42.3,37.8,29.72,NNW,347,3.0,-999.0,84,0.00,,,0.00,WeatherSnoop3.0,2013-03-04 22:53:00,
2013-03-04 16:58:00,42.2,37.7,29.72,North,359,0.0,-999.0,84,0.00,,,0.00,WeatherSnoop3.0,2013-03-04 22:58:00,
2013-03-04 17:03:00,41.9,37.4,29.73,NNW,331,5.0,-999.0,84,0.00,,,0.00,WeatherSnoop3.0,2013-03-04 23:03:00,
2013-03-04 17:08:00,41.7,37.2,29.73,NNE,18,3.0,-999.0,84,0.00,,,0.00,WeatherSnoop3.0,2013-03-04 23:08:00,
2013-03-04 17:13:00,41.4,36.9,29.74,NNE,30,3.0,-999.0,84,0.00,,,0.00,WeatherSnoop3.0,2013-03-04 23:13:00,
2013-03-04 17:18:00,41.1,36.6,29.73,North,6,9.0,-999.0,84,0.00,,,0.00,WeatherSnoop3.0,2013-03-04 23:18:00,
2013-03-04 17:23:00,41.0,36.5,29.74,WNW,302,7.0,-999.0,84,0.00,,,0.00,WeatherSnoop3.0,2013-03-04 23:23:00,
2013-03-04 17:28:00,40.9,36.4,29.74,SW,222,1.0,-999.0,84,0.00,,,0.00,WeatherSnoop3.0,2013-03-04 23:28:00,
2013-03-04 17:33:00,40.8,36.0,29.75,NE,43,6.0,-999.0,83,0.00,,,0.00,WeatherSnoop3.0,2013-03-04 23:33:00,
2013-03-04 17:38:00,40.8,36.3,29.76,NNE,12,2.0,-999.0,84,0.00,,,0.00,WeatherSnoop3.0,2013-03-04 23:38:00,
2013-03-04 17:43:00,40.7,36.2,29.77,NW,315,4.0,-999.0,84,0.00,,,0.00,WeatherSnoop3.0,2013-03-04 23:43:00,
2013-03-04 17:48:00,40.7,36.2,29.77,NNE,13,3.0,-999.0,84,0.00,,,0.00,WeatherSnoop3.0,2013-03-04 23:48:00,
2013-03-04 17:53:00,40.7,35.9,29.78,North,11,3.0,-999.0,83,0.00,,,0.00,WeatherSnoop3.0,2013-03-04 23:53:00,
2013-03-04 17:58:00,40.5,36.1,29.78,ENE,77,3.0,-999.0,84,0.00,,,0.00,WeatherSnoop3.0,2013-03-04 23:58:00,
2013-03-04 18:03:00,40.4,36.0,29.78,NNE,12,12.0,-999.0,84,0.00,,,0.00,WeatherSnoop3.0,2013-03-05 00:03:00,
2013-03-04 18:08:00,40.4,35.7,29.78,North,5,4.0,-999.0,83,0.00,,,0.00,WeatherSnoop3.0,2013-03-05 00:08:00,
2013-03-04 18:13:00,40.3,35.9,29.78,NNE,16,10.0,-999.0,84,0.00,,,0.00,WeatherSnoop3.0,2013-03-05 00:13:00,
2013-03-04 18:18:00,40.2,35.8,29.79,NW,323,5.0,-999.0,84,0.00,,,0.00,WeatherSnoop3.0,2013-03-05 00:18:00,
2013-03-04 18:23:00,40.1,35.7,29.79,NW,304,0.0,-999.0,84,0.00,,,0.00,WeatherSnoop3.0,2013-03-05 00:23:00,
2013-03-04 18:28:00,40.0,35.9,29.80,North,357,5.0,-999.0,85,0.00,,,0.00,WeatherSnoop3.0,2013-03-05 00:28:00,
2013-03-04 18:33:00,39.9,35.8,29.80,NE,41,6.0,-999.0,85,0.00,,,0.00,WeatherSnoop3.0,2013-03-05 00:33:00,
2013-03-04 18:38:00,39.9,35.8,29.81,East,79,2.0,-999.0,85,0.00,,,0.00,WeatherSnoop3.0,2013-03-05 00:38:00,
2013-03-04 18:43:00,39.9,35.5,29.81,NNE,22,6.0,-999.0,84,0.00,,,0.00,WeatherSnoop3.0,2013-03-05 00:43:00,
2013-03-04 18:48:00,39.9,35.5,29.81,NNE,13,8.0,-999.0,84,0.00,,,0.00,WeatherSnoop3.0,2013-03-05 00:48:00,
2013-03-04 18:53:00,39.8,35.4,29.81,NW,325,11.0,-999.0,84,0.00,,,0.00,WeatherSnoop3.0,2013-03-05 00:53:00,
2013-03-04 18:58:00,39.6,35.2,29.82,NNE,32,4.0,-999.0,84,0.00,,,0.00,WeatherSnoop3.0,2013-03-05 00:58:00,
2013-03-04 19:03:00,39.5,35.4,29.82,NW,320,8.0,-999.0,85,0.00,,,0.00,WeatherSnoop3.0,2013-03-05 01:03:00,
2013-03-04 19:08:00,39.5,35.1,29.83,NNE,19,4.0,-999.0,84,0.00,,,0.00,WeatherSnoop3.0,2013-03-05 01:08:00,
2013-03-04 19:13:00,39.5,35.1,29.84,NNE,23,16.0,-999.0,84,0.00,,,0.00,WeatherSnoop3.0,2013-03-05 01:13:00,
2013-03-04 19:18:00,39.4,35.0,29.84,ENE,61,3.0,-999.0,84,0.00,,,0.00,WeatherSnoop3.0,2013-03-05 01:18:00,
2013-03-04 19:23:00,39.3,34.9,29.85,NE,43,5.0,-999.0,84,0.00,,,0.00,WeatherSnoop3.0,2013-03-05 01:23:00,
2013-03-04 19:28:00,39.3,34.9,29.85,NNW,340,7.0,-999.0,84,0.00,,,0.00,WeatherSnoop3.0,2013-03-05 01:28:00,
2013-03-04 19:33:00,39.3,34.9,29.85,NNW,329,9.0,-999.0,84,0.00,,,0.00,WeatherSnoop3.0,2013-03-05 01:33:00,
2013-03-04 19:38:00,39.2,34.8,29.85,North,11,4.0,-999.0,84,0.00,,,0.00,WeatherSnoop3.0,2013-03-05 01:38:00,
2013-03-04 19:43:00,39.1,35.0,29.86,NE,48,8.0,-999.0,85,0.00,,,0.00,WeatherSnoop3.0,2013-03-05 01:43:00,
2013-03-04 19:48:00,39.1,34.7,29.85,NW,316,8.0,-999.0,84,0.00,,,0.00,WeatherSnoop3.0,2013-03-05 01:48:00,
2013-03-04 19:53:00,39.1,34.7,29.85,ENE,70,10.0,-999.0,84,0.00,,,0.00,WeatherSnoop3.0,2013-03-05 01:53:00,
2013-03-04 19:58:00,39.0,34.6,29.85,NNW,347,6.0,-999.0,84,0.00,,,0.00,WeatherSnoop3.0,2013-03-05 01:58:00,
2013-03-04 20:03:00,39.0,34.6,29.86,NNE,32,7.0,-999.0,84,0.00,,,0.00,WeatherSnoop3.0,2013-03-05 02:03:00,
2013-03-04 20:08:00,38.9,34.5,29.87,NNE,20,9.0,-999.0,84,0.00,,,0.00,WeatherSnoop3.0,2013-03-05 02:08:00,
2013-03-04 20:13:00,38.7,34.6,29.87,NNE,29,10.0,-999.0,85,0.00,,,0.00,WeatherSnoop3.0,2013-03-05 02:13:00,
2013-03-04 20:18:00,38.5,34.7,29.87,North,352,10.0,-999.0,86,0.00,,,0.00,WeatherSnoop3.0,2013-03-05 02:18:00,
2013-03-04 20:23:00,38.5,34.7,29.88,NNW,331,4.0,-999.0,86,0.00,,,0.00,WeatherSnoop3.0,2013-03-05 02:23:00,
2013-03-04 20:28:00,38.5,34.7,29.90,NE,36,3.0,-999.0,86,0.00,,,0.00,WeatherSnoop3.0,2013-03-05 02:28:00,
2013-03-04 20:33:00,38.6,34.8,29.91,North,352,3.0,-999.0,86,0.00,,,0.00,WeatherSnoop3.0,2013-03-05 02:33:00,
2013-03-04 20:38:00,38.5,34.4,29.91,NNE,15,4.0,-999.0,85,0.00,,,0.00,WeatherSnoop3.0,2013-03-05 02:38:00,
2013-03-04 20:43:00,38.5,34.4,29.92,NNE,19,10.0,-999.0,85,0.00,,,0.00,WeatherSnoop3.0,2013-03-05 02:43:00,
2013-03-04 20:48:00,38.6,34.5,29.93,NNE,15,6.0,-999.0,85,0.00,,,0.00,WeatherSnoop3.0,2013-03-05 02:48:00,
2013-03-04 20:53:00,38.6,34.8,29.94,NNE,30,2.0,-999.0,86,0.00,,,0.00,WeatherSnoop3.0,2013-03-05 02:53:00,
2013-03-04 20:58:00,38.5,34.7,29.95,NNE,18,3.0,-999.0,86,0.00,,,0.00,WeatherSnoop3.0,2013-03-05 02:58:00,
2013-03-04 21:03:00,38.3,34.8,29.95,NW,315,2.0,-999.0,87,0.00,,,0.00,WeatherSnoop3.0,2013-03-05 03:03:00,
2013-03-04 21:08:00,38.3,34.8,29.96,NNE,13,9.0,-999.0,87,0.00,,,0.00,WeatherSnoop3.0,2013-03-05 03:08:00,
2013-03-04 21:13:00,38.4,34.9,29.96,NNE,30,14.0,-999.0,87,0.00,,,0.00,WeatherSnoop3.0,2013-03-05 03:13:00,
2013-03-04 21:18:00,38.3,34.8,29.97,NW,318,7.0,-999.0,87,0.00,,,0.00,WeatherSnoop3.0,2013-03-05 03:18:00,
2013-03-04 21:23:00,38.3,35.1,29.97,North,355,5.0,-999.0,88,0.00,,,0.00,WeatherSnoop3.0,2013-03-05 03:23:00,
2013-03-04 21:28:00,38.3,35.1,29.97,NE,39,10.0,-999.0,88,0.00,,,0.00,WeatherSnoop3.0,2013-03-05 03:28:00,
2013-03-04 21:33:00,38.1,34.9,29.98,NNE,22,7.0,-999.0,88,0.00,,,0.00,WeatherSnoop3.0,2013-03-05 03:33:00,
2013-03-04 21:38:00,37.8,34.9,29.98,SE,133,6.0,-999.0,89,0.00,,,0.00,WeatherSnoop3.0,2013-03-05 03:38:00,
2013-03-04 21:43:00,37.5,34.8,29.98,NNE,20,5.0,-999.0,90,0.00,,,0.00,WeatherSnoop3.0,2013-03-05 03:43:00,
2013-03-04 21:48:00,37.1,34.7,29.98,NNE,26,6.0,-999.0,91,0.00,,,0.01,WeatherSnoop3.0,2013-03-05 03:48:00,
2013-03-04 21:53:00,36.8,34.4,29.98,North,351,9.0,-999.0,91,0.00,,,0.01,WeatherSnoop3.0,2013-03-05 03:53:00,
2013-03-04 21:58:00,36.5,34.4,29.99,NE,39,12.0,-999.0,92,0.00,,,0.01,WeatherSnoop3.0,2013-03-05 03:58:00,
2013-03-04 22:03:00,36.3,34.2,30.00,NNE,18,8.0,-999.0,92,0.00,,,0.01,WeatherSnoop3.0,2013-03-05 04:03:00,
2013-03-04 22:08:00,36.1,34.0,30.00,North,356,11.0,-999.0,92,0.00,,,0.01,WeatherSnoop3.0,2013-03-05 04:08:00,
2013-03-04 22:13:00,36.0,34.2,30.00,North,8,4.0,-999.0,93,0.00,,,0.01,WeatherSnoop3.0,2013-03-05 04:13:00,
2013-03-04 22:18:00,36.0,34.2,30.00,NNW,342,7.0,-999.0,93,0.00,,,0.01,WeatherSnoop3.0,2013-03-05 04:18:00,
2013-03-04 22:23:00,36.0,34.2,29.99,NNE,32,5.0,-999.0,93,0.00,,,0.01,WeatherSnoop3.0,2013-03-05 04:23:00,
2013-03-04 22:28:00,36.0,34.2,29.98,NW,322,8.0,-999.0,93,0.00,,,0.01,WeatherSnoop3.0,2013-03-05 04:28:00,
2013-03-04 22:33:00,36.0,34.2,29.99,NNE,24,3.0,-999.0,93,0.00,,,0.01,WeatherSnoop3.0,2013-03-05 04:33:00,
2013-03-04 22:38:00,36.0,34.2,30.00,North,358,6.0,-999.0,93,0.00,,,0.01,WeatherSnoop3.0,2013-03-05 04:38:00,
2013-03-04 22:43:00,36.0,34.2,29.99,North,360,6.0,-999.0,93,0.00,,,0.01,WeatherSnoop3.0,2013-03-05 04:43:00,
2013-03-04 22:48:00,36.0,34.2,29.99,NNE,30,6.0,-999.0,93,0.00,,,0.01,WeatherSnoop3.0,2013-03-05 04:48:00,
2013-03-04 22:53:00,36.0,34.2,29.99,NNW,342,4.0,-999.0,93,0.00,,,0.01,WeatherSnoop3.0,2013-03-05 04:53:00,
2013-03-04 22:58:00,36.0,34.2,30.00,North,360,2.0,-999.0,93,0.00,,,0.01,WeatherSnoop3.0,2013-03-05 04:58:00,
2013-03-04 23:03:00,35.9,34.1,30.00,NE,37,4.0,-999.0,93,0.00,,,0.01,WeatherSnoop3.0,2013-03-05 05:03:00,
2013-03-04 23:08:00,35.9,34.1,30.00,North,356,3.0,-999.0,93,0.00,,,0.01,WeatherSnoop3.0,2013-03-05 05:08:00,
2013-03-04 23:13:00,35.9,34.1,30.01,WSW,248,0.0,-999.0,93,0.00,,,0.01,WeatherSnoop3.0,2013-03-05 05:13:00,
2013-03-04 23:18:00,35.8,34.0,30.01,NNE,26,1.0,-999.0,93,0.00,,,0.01,WeatherSnoop3.0,2013-03-05 05:18:00,
2013-03-04 23:23:00,35.8,34.0,30.00,North,9,3.0,-999.0,93,0.00,,,0.01,WeatherSnoop3.0,2013-03-05 05:23:00,
2013-03-04 23:28:00,35.7,33.9,30.01,NNE,22,3.0,-999.0,93,0.00,,,0.01,WeatherSnoop3.0,2013-03-05 05:28:00,
2013-03-04 23:33:00,35.7,33.9,30.00,East,96,1.0,-999.0,93,0.00,,,0.01,WeatherSnoop3.0,2013-03-05 05:33:00,
2013-03-04 23:38:00,35.6,33.8,30.01,NNW,342,2.0,-999.0,93,0.00,,,0.01,WeatherSnoop3.0,2013-03-05 05:38:00,
2013-03-04 23:43:00,35.6,34.0,30.02,NW,314,0.0,-999.0,94,0.00,,,0.01,WeatherSnoop3.0,2013-03-05 05:43:00,
2013-03-04 23:48:00,35.5,33.9,30.03,West,262,2.0,-999.0,94,0.00,,,0.01,WeatherSnoop3.0,2013-03-05 05:48:00,
2013-03-04 23:53:00,35.4,33.8,30.03,WNW,283,0.0,-999.0,94,0.00,,,0.01,WeatherSnoop3.0,2013-03-05 05:53:00,
2013-03-04 23:58:00,35.4,33.8,30.02,West,271,0.0,-999.0,94,0.00,,,0.01,WeatherSnoop3.0,2013-03-05 05:58:00,